createdAt,value
2019-02-17T00:00:02.898Z,55.21
2019-02-17T00:02:29.705Z,55.18
2019-02-17T00:04:56.443Z,55.35
2019-02-17T00:07:23.159Z,55.45
2019-02-17T00:09:49.938Z,55.54
2019-02-17T00:12:16.690Z,55.44
2019-02-17T00:14:43.390Z,55.34
2019-02-17T00:17:10.205Z,55.38
2019-02-17T00:19:36.944Z,55.45
2019-02-17T00:22:03.784Z,55.28
2019-02-17T00:24:30.582Z,55.31
2019-02-17T00:26:57.327Z,55.19
2019-02-17T00:29:24.039Z,55.39
2019-02-17T00:31:50.827Z,55.30
2019-02-17T00:34:17.580Z,55.37
2019-02-17T00:36:44.289Z,55.47
2019-02-17T00:39:11.104Z,55.51
2019-02-17T00:41:37.809Z,55.54
2019-02-17T00:44:04.571Z,55.62
2019-02-17T00:46:31.298Z,55.56
2019-02-17T00:48:58.055Z,55.43
2019-02-17T00:51:24.832Z,55.30
2019-02-17T00:53:51.579Z,55.07
2019-02-17T00:56:18.299Z,55.09
2019-02-17T00:58:45.116Z,55.27
2019-02-17T01:01:11.872Z,55.53
2019-02-17T01:03:38.633Z,55.44
2019-02-17T01:06:05.404Z,55.56
2019-02-17T01:08:32.119Z,55.58
2019-02-17T01:10:58.875Z,55.61
2019-02-17T01:13:25.657Z,55.62
2019-02-17T01:15:52.377Z,55.56
2019-02-17T01:18:19.162Z,55.46
2019-02-17T01:20:45.905Z,55.49
2019-02-17T01:23:16.272Z,55.62
2019-02-17T01:25:43.054Z,55.61
2019-02-17T01:28:09.769Z,55.59
2019-02-17T01:30:36.500Z,55.59
2019-02-17T01:33:03.286Z,55.52
2019-02-17T01:35:30.014Z,55.61
2019-02-17T01:37:58.265Z,55.44
2019-02-17T01:40:25.257Z,55.46
2019-02-17T01:42:51.963Z,55.42
2019-02-17T01:45:18.724Z,55.56
2019-02-17T01:47:45.513Z,55.60
2019-02-17T01:50:12.211Z,55.61
2019-02-17T01:52:38.976Z,55.73
2019-02-17T01:55:07.027Z,55.67
2019-02-17T01:57:33.782Z,55.64
2019-02-17T02:00:00.533Z,55.66
2019-02-17T02:02:27.322Z,55.74
2019-02-17T02:04:54.038Z,55.73
2019-02-17T02:07:20.770Z,55.58
2019-02-17T02:09:47.552Z,55.65
2019-02-17T02:12:14.283Z,55.50
2019-02-17T02:14:40.993Z,55.45
2019-02-17T02:17:07.762Z,55.59
2019-02-17T02:19:34.495Z,55.53
2019-02-17T02:22:01.207Z,55.55
2019-02-17T02:24:28.072Z,55.46
2019-02-17T02:26:54.811Z,55.44
2019-02-17T02:29:21.511Z,55.56
2019-02-17T02:31:48.308Z,55.71
2019-02-17T02:34:15.051Z,55.69
2019-02-17T02:36:41.842Z,55.68
2019-02-17T02:39:08.544Z,55.70
2019-02-17T02:41:35.422Z,55.67
2019-02-17T02:44:02.165Z,55.68
2019-02-17T02:46:28.872Z,55.67
2019-02-17T02:48:55.679Z,55.60
2019-02-17T02:51:22.387Z,55.49
2019-02-17T02:53:49.133Z,55.46
2019-02-17T02:56:15.934Z,55.43
2019-02-17T02:58:42.667Z,55.48
2019-02-17T03:01:09.413Z,55.38
2019-02-17T03:03:36.194Z,55.26
2019-02-17T03:06:02.959Z,55.36
2019-02-17T03:08:29.690Z,55.27
2019-02-17T03:10:56.465Z,55.33
2019-02-17T03:13:23.224Z,55.39
2019-02-17T03:15:49.949Z,55.44
2019-02-17T03:18:16.733Z,55.55
2019-02-17T03:20:43.494Z,55.22
2019-02-17T03:23:10.234Z,55.01
2019-02-17T03:25:37.092Z,55.25
2019-02-17T03:28:03.834Z,55.44
2019-02-17T03:30:30.587Z,55.31
2019-02-17T03:32:57.376Z,55.39
2019-02-17T03:35:24.078Z,55.72
2019-02-17T03:37:50.876Z,55.69
2019-02-17T03:40:17.635Z,55.64
2019-02-17T03:42:44.384Z,55.38
2019-02-17T03:45:11.159Z,55.37
2019-02-17T03:47:37.876Z,55.34
2019-02-17T03:50:05.943Z,55.37
2019-02-17T03:52:32.694Z,55.65
2019-02-17T03:54:59.442Z,55.69
2019-02-17T03:57:26.227Z,55.58
2019-02-17T03:59:52.965Z,55.43
2019-02-17T04:02:19.700Z,55.54
2019-02-17T04:04:46.491Z,55.38
2019-02-17T04:07:13.239Z,55.46
2019-02-17T04:09:39.955Z,55.50
2019-02-17T04:12:06.750Z,55.54
2019-02-17T04:14:33.480Z,55.39
2019-02-17T04:17:01.375Z,55.45
2019-02-17T04:19:28.177Z,55.61
2019-02-17T04:21:54.880Z,55.51
2019-02-17T04:24:21.595Z,55.56
2019-02-17T04:26:51.484Z,55.45
2019-02-17T04:29:18.220Z,55.41
2019-02-17T04:31:45.052Z,55.33
2019-02-17T04:34:11.750Z,55.21
2019-02-17T04:36:38.484Z,55.24
2019-02-17T04:39:05.241Z,54.93
2019-02-17T04:41:31.980Z,55.15
2019-02-17T04:43:58.754Z,55.50
2019-02-17T04:46:25.457Z,55.56
2019-02-17T04:48:52.201Z,55.50
2019-02-17T04:51:19.200Z,55.62
2019-02-17T04:53:45.873Z,55.57
2019-02-17T04:56:12.983Z,55.36
2019-02-17T04:58:39.699Z,55.15
2019-02-17T05:01:06.430Z,55.15
2019-02-17T05:03:33.272Z,55.32
2019-02-17T05:06:00.037Z,55.77
2019-02-17T05:08:26.736Z,55.83
2019-02-17T05:10:53.510Z,55.92
2019-02-17T05:13:20.249Z,55.81
2019-02-17T05:15:47.077Z,55.72
2019-02-17T05:18:13.814Z,55.92
2019-02-17T05:20:40.521Z,55.79
2019-02-17T05:23:07.339Z,55.56
2019-02-17T05:25:34.050Z,55.42
2019-02-17T05:28:00.824Z,55.51
2019-02-17T05:30:27.641Z,55.90
2019-02-17T05:32:54.367Z,55.82
2019-02-17T05:35:21.100Z,55.51
2019-02-17T05:37:47.942Z,55.33
2019-02-17T05:40:14.689Z,55.50
2019-02-17T05:42:41.427Z,55.58
2019-02-17T05:45:08.268Z,55.42
2019-02-17T05:47:34.953Z,55.48
2019-02-17T05:50:01.665Z,55.28
2019-02-17T05:52:28.490Z,55.26
2019-02-17T05:54:55.224Z,55.39
2019-02-17T05:57:21.939Z,55.39
2019-02-17T05:59:57.394Z,55.40
2019-02-17T06:02:30.055Z,55.54
2019-02-17T06:04:56.986Z,55.62
2019-02-17T06:07:23.747Z,55.67
2019-02-17T06:09:50.481Z,55.53
2019-02-17T06:12:18.677Z,55.41
2019-02-17T06:14:45.493Z,55.33
2019-02-17T06:17:12.245Z,55.21
2019-02-17T06:19:39.052Z,55.14
2019-02-17T06:22:05.770Z,55.21
2019-02-17T06:24:32.482Z,55.24
2019-02-17T06:26:59.257Z,55.29
2019-02-17T06:29:26.033Z,55.51
2019-02-17T06:31:52.784Z,55.65
2019-02-17T06:34:19.554Z,55.59
2019-02-17T06:36:46.339Z,56.22
2019-02-17T06:39:13.189Z,55.90
2019-02-17T06:41:40.023Z,55.86
2019-02-17T06:44:06.756Z,55.43
2019-02-17T06:46:33.590Z,55.27
2019-02-17T06:49:00.326Z,55.79
2019-02-17T06:51:27.062Z,56.00
2019-02-17T06:53:53.834Z,55.81
2019-02-17T06:56:20.598Z,55.99
2019-02-17T06:58:47.308Z,56.04
2019-02-17T07:01:24.087Z,56.23
2019-02-17T07:03:43.204Z,56.19
2019-02-17T07:06:10.006Z,56.14
2019-02-17T07:08:36.803Z,56.44
2019-02-17T07:11:03.565Z,56.82
2019-02-17T07:13:30.335Z,56.43
2019-02-17T07:15:57.070Z,56.32
2019-02-17T07:18:23.820Z,56.10
2019-02-17T07:20:50.608Z,55.86
2019-02-17T07:23:17.314Z,55.12
2019-02-17T07:25:45.641Z,54.83
2019-02-17T07:28:12.406Z,55.04
2019-02-17T07:30:39.888Z,55.17
2019-02-17T07:33:06.749Z,55.10
2019-02-17T07:35:33.466Z,55.14
2019-02-17T07:38:00.229Z,55.27
2019-02-17T07:40:27.002Z,55.62
2019-02-17T07:42:53.785Z,55.52
2019-02-17T07:45:22.133Z,55.84
2019-02-17T07:47:52.583Z,55.84
2019-02-17T07:50:19.286Z,55.74
2019-02-17T07:52:46.027Z,56.01
2019-02-17T07:55:12.787Z,56.05
2019-02-17T07:57:39.510Z,55.67
2019-02-17T08:00:11.180Z,55.69
2019-02-17T08:02:37.912Z,55.46
2019-02-17T08:05:05.752Z,55.34
2019-02-17T08:07:32.504Z,55.81
2019-02-17T08:10:00.740Z,55.64
2019-02-17T08:12:27.832Z,55.46
2019-02-17T08:14:54.569Z,55.19
2019-02-17T08:17:21.308Z,54.59
2019-02-17T08:19:48.071Z,54.61
2019-02-17T08:22:14.784Z,54.52
2019-02-17T08:24:41.534Z,54.19
2019-02-17T08:27:08.351Z,54.19
2019-02-17T08:29:35.086Z,54.21
2019-02-17T08:32:01.854Z,54.42
2019-02-17T08:34:28.753Z,54.36
2019-02-17T08:36:55.496Z,54.05
2019-02-17T08:39:22.211Z,53.90
2019-02-17T08:41:48.973Z,53.54
2019-02-17T08:44:15.691Z,53.72
2019-02-17T08:46:42.486Z,53.64
2019-02-17T08:49:09.203Z,53.60
2019-02-17T08:51:35.910Z,53.47
2019-02-17T08:54:02.707Z,53.59
2019-02-17T08:56:30.510Z,53.39
2019-02-17T08:58:57.253Z,53.44
2019-02-17T09:01:24.012Z,53.44
2019-02-17T09:03:50.770Z,53.14
2019-02-17T09:06:17.619Z,52.83
2019-02-17T09:08:44.338Z,52.68
2019-02-17T09:11:11.073Z,52.57
2019-02-17T09:13:37.868Z,52.38
2019-02-17T09:16:04.612Z,52.50
2019-02-17T09:18:31.370Z,52.30
2019-02-17T09:20:58.148Z,52.09
2019-02-17T09:23:24.901Z,51.98
2019-02-17T09:25:51.791Z,51.97
2019-02-17T09:28:18.520Z,52.05
2019-02-17T09:30:45.284Z,51.80
2019-02-17T09:33:12.065Z,52.25
2019-02-17T09:35:38.881Z,52.16
2019-02-17T09:38:05.618Z,51.92
2019-02-17T09:40:32.342Z,51.76
2019-02-17T09:42:59.144Z,52.21
2019-02-17T09:45:25.856Z,52.29
2019-02-17T09:47:52.616Z,52.32
2019-02-17T09:50:19.415Z,52.05
2019-02-17T09:52:46.143Z,51.66
2019-02-17T09:55:12.890Z,51.53
2019-02-17T09:57:39.661Z,51.05
2019-02-17T10:00:12.531Z,50.40
2019-02-17T10:02:39.275Z,49.96
2019-02-17T10:05:08.674Z,49.05
2019-02-17T10:07:35.429Z,49.32
2019-02-17T10:10:03.174Z,49.18
2019-02-17T10:12:29.962Z,49.01
2019-02-17T10:14:56.672Z,49.22
2019-02-17T10:17:23.475Z,49.65
2019-02-17T10:19:50.172Z,49.31
2019-02-17T10:22:16.907Z,49.12
2019-02-17T10:24:43.720Z,48.92
2019-02-17T10:27:10.452Z,48.90
2019-02-17T10:29:37.186Z,49.13
2019-02-17T10:32:03.954Z,49.39
2019-02-17T10:34:34.457Z,49.88
2019-02-17T10:37:01.168Z,49.93
2019-02-17T10:39:27.969Z,49.95
2019-02-17T10:41:54.676Z,50.41
2019-02-17T10:44:21.524Z,50.09
2019-02-17T10:46:48.250Z,49.93
2019-02-17T10:49:14.983Z,49.44
2019-02-17T10:51:41.778Z,49.48
2019-02-17T10:54:08.499Z,48.66
2019-02-17T10:56:35.221Z,47.90
2019-02-17T10:59:01.985Z,47.58
2019-02-17T11:01:28.808Z,47.54
2019-02-17T11:04:02.211Z,47.55
2019-02-17T11:06:29.043Z,47.52
2019-02-17T11:08:55.790Z,47.74
2019-02-17T11:11:22.488Z,47.84
2019-02-17T11:13:49.253Z,48.76
2019-02-17T11:16:16.027Z,49.67
2019-02-17T11:18:42.780Z,49.80
2019-02-17T11:21:09.549Z,48.99
2019-02-17T11:23:36.307Z,48.59
2019-02-17T11:26:03.086Z,48.65
2019-02-17T11:28:29.826Z,49.52
2019-02-17T11:30:56.536Z,50.32
2019-02-17T11:33:23.316Z,49.85
2019-02-17T11:35:50.109Z,49.96
2019-02-17T11:38:16.822Z,49.14
2019-02-17T11:40:43.589Z,48.20
2019-02-17T11:43:10.341Z,48.62
2019-02-17T11:45:37.074Z,48.56
2019-02-17T11:48:03.859Z,48.86
2019-02-17T11:50:30.586Z,49.26
2019-02-17T11:52:57.333Z,49.37
2019-02-17T11:55:24.118Z,48.44
2019-02-17T11:57:50.840Z,46.13
2019-02-17T12:00:20.290Z,45.02
2019-02-17T12:02:47.068Z,43.66
2019-02-17T12:05:13.888Z,43.22
2019-02-17T12:07:40.559Z,41.53
2019-02-17T12:10:09.737Z,39.98
2019-02-17T12:12:36.482Z,39.94
2019-02-17T12:15:05.961Z,38.78
2019-02-17T12:17:32.693Z,36.97
2019-02-17T12:19:59.460Z,36.45
2019-02-17T12:22:26.243Z,35.92
2019-02-17T12:24:52.991Z,34.92
2019-02-17T12:27:19.785Z,34.16
2019-02-17T12:29:46.527Z,33.75
2019-02-17T12:32:13.309Z,32.99
2019-02-17T12:34:40.064Z,32.63
2019-02-17T12:37:06.863Z,32.06
2019-02-17T12:39:33.670Z,31.98
2019-02-17T12:42:00.415Z,32.10
2019-02-17T12:44:27.141Z,31.78
2019-02-17T12:46:53.940Z,32.12
2019-02-17T12:49:20.679Z,32.36
2019-02-17T12:51:47.437Z,31.77
2019-02-17T12:54:14.230Z,31.46
2019-02-17T12:56:40.974Z,31.08
2019-02-17T12:59:07.727Z,30.75
2019-02-17T13:01:34.515Z,31.00
2019-02-17T13:04:01.278Z,32.56
2019-02-17T13:06:28.025Z,31.67
2019-02-17T13:08:54.832Z,31.56
2019-02-17T13:11:21.541Z,31.32
2019-02-17T13:13:48.305Z,31.04
2019-02-17T13:16:15.088Z,31.17
2019-02-17T13:18:41.843Z,30.67
2019-02-17T13:21:08.598Z,30.85
2019-02-17T13:23:35.352Z,31.12
2019-02-17T13:26:02.074Z,30.23
2019-02-17T13:28:28.885Z,31.08
2019-02-17T13:30:55.618Z,31.79
2019-02-17T13:33:22.343Z,31.67
2019-02-17T13:35:49.107Z,32.07
2019-02-17T13:38:15.906Z,30.66
2019-02-17T13:40:42.625Z,30.77
2019-02-17T13:43:09.464Z,33.04
2019-02-17T13:45:36.165Z,30.59
2019-02-17T13:48:02.886Z,32.16
2019-02-17T13:50:29.653Z,33.00
2019-02-17T13:52:56.409Z,33.78
2019-02-17T13:55:23.176Z,34.53
2019-02-17T13:57:52.266Z,35.34
2019-02-17T14:00:18.770Z,36.72
2019-02-17T14:02:45.805Z,38.07
2019-02-17T14:05:12.864Z,38.84
2019-02-17T14:07:41.470Z,39.38
2019-02-17T14:10:11.889Z,39.05
2019-02-17T14:12:38.630Z,40.33
2019-02-17T14:15:15.404Z,41.59
2019-02-17T14:17:42.149Z,42.46
2019-02-17T14:20:09.563Z,42.37
2019-02-17T14:22:36.381Z,42.77
2019-02-17T14:25:05.287Z,43.21
2019-02-17T14:27:32.000Z,43.02
2019-02-17T14:29:58.786Z,43.12
2019-02-17T14:32:25.538Z,43.76
2019-02-17T14:34:52.236Z,44.19
2019-02-17T14:37:19.004Z,44.25
2019-02-17T14:39:45.838Z,44.56
2019-02-17T14:42:12.664Z,44.77
2019-02-17T14:44:39.398Z,44.97
2019-02-17T14:47:06.165Z,44.82
2019-02-17T14:49:33.012Z,44.53
2019-02-17T14:51:59.716Z,45.56
2019-02-17T14:54:26.465Z,46.06
2019-02-17T14:56:53.244Z,46.18
2019-02-17T14:59:19.971Z,46.36
2019-02-17T15:01:46.955Z,45.71
2019-02-17T15:04:15.134Z,45.84
2019-02-17T15:06:41.889Z,46.50
2019-02-17T15:09:08.624Z,47.33
2019-02-17T15:11:35.354Z,47.11
2019-02-17T15:14:02.172Z,46.96
2019-02-17T15:16:28.894Z,46.80
2019-02-17T15:18:55.657Z,47.27
2019-02-17T15:21:22.424Z,47.54
2019-02-17T15:23:49.177Z,47.65
2019-02-17T15:26:15.887Z,47.75
2019-02-17T15:28:50.559Z,47.92
2019-02-17T15:31:11.209Z,47.70
2019-02-17T15:33:37.936Z,48.07
2019-02-17T15:36:04.736Z,48.16
2019-02-17T15:38:31.458Z,48.00
2019-02-17T15:40:58.208Z,48.13
2019-02-17T15:43:25.014Z,48.25
2019-02-17T15:45:51.767Z,48.30
2019-02-17T15:48:18.588Z,48.39
2019-02-17T15:50:45.372Z,48.31
2019-02-17T15:53:12.096Z,48.33
2019-02-17T15:55:38.865Z,48.62
2019-02-17T15:58:05.687Z,48.80
2019-02-17T16:00:32.473Z,49.31
2019-02-17T16:02:59.269Z,49.34
2019-02-17T16:05:26.128Z,49.28
2019-02-17T16:07:53.070Z,49.44
2019-02-17T16:10:20.094Z,49.51
2019-02-17T16:12:47.144Z,49.66
2019-02-17T16:15:17.219Z,49.90
2019-02-17T16:17:44.421Z,49.92
2019-02-17T16:20:12.857Z,50.05
2019-02-17T16:22:39.831Z,50.08
2019-02-17T16:25:08.420Z,50.21
2019-02-17T16:27:35.593Z,50.39
2019-02-17T16:30:05.308Z,50.42
2019-02-17T16:32:32.285Z,50.80
2019-02-17T16:34:59.434Z,50.90
2019-02-17T16:37:27.558Z,50.94
2019-02-17T16:39:54.727Z,51.04
2019-02-17T16:42:25.779Z,50.81
2019-02-17T16:44:52.993Z,50.79
2019-02-17T16:47:20.029Z,50.41
2019-02-17T16:49:50.194Z,50.42
2019-02-17T16:52:17.439Z,50.37
2019-02-17T16:54:44.524Z,50.37
2019-02-17T16:57:11.665Z,50.16
2019-02-17T16:59:38.667Z,50.61
2019-02-17T17:02:05.540Z,50.84
2019-02-17T17:04:32.852Z,50.92
2019-02-17T17:07:01.037Z,51.02
2019-02-17T17:09:28.297Z,51.12
2019-02-17T17:11:58.230Z,51.40
2019-02-17T17:14:25.351Z,51.24
2019-02-17T17:16:52.316Z,50.93
2019-02-17T17:19:23.001Z,50.90
2019-02-17T17:21:49.955Z,51.16
2019-02-17T17:24:17.099Z,51.54
2019-02-17T17:26:44.280Z,51.51
2019-02-17T17:29:11.228Z,50.82
2019-02-17T17:31:38.331Z,50.83
2019-02-17T17:34:05.284Z,50.50
2019-02-17T17:36:33.421Z,50.68
2019-02-17T17:39:00.625Z,50.97
2019-02-17T17:41:27.698Z,51.62
2019-02-17T17:43:54.771Z,51.64
2019-02-17T17:46:21.969Z,51.08
2019-02-17T17:48:48.892Z,51.04
2019-02-17T17:51:17.014Z,51.22
2019-02-17T17:53:44.080Z,51.34
2019-02-17T17:56:11.124Z,51.34
2019-02-17T17:58:38.054Z,51.21
2019-02-17T18:01:05.000Z,51.32
2019-02-17T18:03:32.114Z,51.29
2019-02-17T18:05:58.972Z,51.39
2019-02-17T18:08:26.042Z,51.31
2019-02-17T18:10:54.211Z,51.40
2019-02-17T18:13:21.993Z,51.42
2019-02-17T18:15:49.136Z,51.40
2019-02-17T18:18:16.061Z,51.45
2019-02-17T18:20:43.191Z,51.46
2019-02-17T18:23:10.048Z,51.48
2019-02-17T18:25:36.863Z,51.22
2019-02-17T18:28:03.713Z,51.15
2019-02-17T18:30:30.589Z,51.39
2019-02-17T18:32:57.534Z,51.49
2019-02-17T18:35:24.370Z,51.44
2019-02-17T18:37:51.174Z,51.60
2019-02-17T18:40:18.777Z,51.68
2019-02-17T18:42:45.748Z,51.83
2019-02-17T18:45:14.438Z,51.49
2019-02-17T18:47:41.268Z,51.22
2019-02-17T18:50:11.537Z,51.58
2019-02-17T18:52:38.620Z,51.92
2019-02-17T18:55:08.864Z,52.12
2019-02-17T18:57:35.719Z,52.15
2019-02-17T19:00:09.646Z,52.16
2019-02-17T19:02:36.482Z,51.99
2019-02-17T19:05:06.932Z,52.06
2019-02-17T19:07:33.783Z,51.92
2019-02-17T19:10:00.625Z,52.20
2019-02-17T19:12:27.795Z,52.11
2019-02-17T19:14:54.781Z,51.93
2019-02-17T19:17:21.592Z,51.62
2019-02-17T19:19:48.554Z,51.73
2019-02-17T19:22:15.657Z,51.88
2019-02-17T19:24:42.475Z,52.03
2019-02-17T19:27:09.289Z,52.01
2019-02-17T19:29:36.238Z,52.27
2019-02-17T19:32:03.258Z,52.40
2019-02-17T19:34:30.324Z,52.24
2019-02-17T19:36:57.304Z,52.20
2019-02-17T19:39:24.128Z,52.19
2019-02-17T19:41:51.007Z,52.30
2019-02-17T19:44:17.925Z,52.25
2019-02-17T19:46:44.998Z,52.27
2019-02-17T19:49:11.911Z,52.15
2019-02-17T19:51:38.980Z,52.18
2019-02-17T19:54:05.806Z,52.35
2019-02-17T19:56:32.809Z,52.35
2019-02-17T19:58:59.839Z,52.23
2019-02-17T20:01:26.684Z,52.11
2019-02-17T20:03:53.756Z,51.99
2019-02-17T20:06:20.583Z,52.05
2019-02-17T20:08:47.506Z,51.88
2019-02-17T20:11:14.377Z,51.90
2019-02-17T20:13:41.412Z,52.06
2019-02-17T20:16:08.417Z,51.97
2019-02-17T20:18:35.474Z,52.08
2019-02-17T20:21:02.442Z,52.01
2019-02-17T20:23:29.640Z,51.93
2019-02-17T20:25:58.018Z,51.97
2019-02-17T20:28:40.533Z,52.12
2019-02-17T20:30:53.691Z,52.43
2019-02-17T20:33:20.524Z,52.37
2019-02-17T20:35:47.384Z,52.37
2019-02-17T20:38:14.224Z,52.57
2019-02-17T20:40:41.030Z,52.46
2019-02-17T20:43:07.888Z,52.49
2019-02-17T20:45:36.635Z,52.52
2019-02-17T20:48:03.486Z,52.81
2019-02-17T20:50:30.315Z,53.16
2019-02-17T20:52:57.061Z,53.25
2019-02-17T20:55:23.880Z,52.80
2019-02-17T20:57:50.640Z,52.71
2019-02-17T21:00:19.060Z,52.81
2019-02-17T21:02:47.399Z,52.84
2019-02-17T21:05:33.851Z,52.83
2019-02-17T21:08:00.642Z,52.90
2019-02-17T21:10:27.407Z,52.59
2019-02-17T21:12:54.151Z,52.61
2019-02-17T21:15:20.973Z,52.61
2019-02-17T21:17:47.738Z,52.45
2019-02-17T21:20:14.449Z,52.49
2019-02-17T21:22:41.231Z,52.54
2019-02-17T21:25:09.749Z,52.75
2019-02-17T21:27:36.553Z,52.72
2019-02-17T21:30:15.312Z,52.66
2019-02-17T21:32:42.111Z,52.80
2019-02-17T21:35:14.379Z,52.93
2019-02-17T21:37:41.114Z,52.84
2019-02-17T21:40:10.125Z,52.69
2019-02-17T21:42:36.874Z,52.90
2019-02-17T21:45:10.597Z,52.98
2019-02-17T21:47:39.058Z,52.88
2019-02-17T21:50:25.715Z,52.94
2019-02-17T21:52:52.532Z,53.06
2019-02-17T21:55:19.265Z,53.16
2019-02-17T21:57:45.976Z,53.17
2019-02-17T22:00:19.475Z,53.42
2019-02-17T22:02:46.181Z,53.42
2019-02-17T22:05:12.934Z,53.51
2019-02-17T22:07:39.877Z,53.58
2019-02-17T22:10:11.092Z,53.44
2019-02-17T22:12:37.917Z,53.35
2019-02-17T22:15:11.595Z,53.47
2019-02-17T22:17:38.339Z,53.39
2019-02-17T22:20:08.136Z,53.33
2019-02-17T22:22:34.880Z,53.09
2019-02-17T22:25:01.653Z,53.28
2019-02-17T22:27:28.364Z,53.15
2019-02-17T22:29:55.109Z,53.24
2019-02-17T22:32:21.944Z,53.17
2019-02-17T22:34:48.670Z,53.29
2019-02-17T22:37:15.414Z,53.46
2019-02-17T22:39:42.200Z,53.18
2019-02-17T22:42:28.672Z,53.38
2019-02-17T22:44:55.471Z,53.32
2019-02-17T22:47:22.235Z,53.56
2019-02-17T22:49:48.984Z,53.01
2019-02-17T22:52:15.788Z,53.16
2019-02-17T22:54:42.511Z,53.36
2019-02-17T22:57:09.263Z,53.31
2019-02-17T22:59:36.075Z,53.53
2019-02-17T23:02:02.794Z,53.58
2019-02-17T23:04:29.526Z,53.34
2019-02-17T23:06:56.304Z,53.30
2019-02-17T23:09:23.021Z,53.28
2019-02-17T23:11:49.838Z,53.24
2019-02-17T23:14:16.547Z,53.18
2019-02-17T23:16:43.291Z,53.17
2019-02-17T23:19:10.099Z,53.34
2019-02-17T23:21:36.847Z,53.41
2019-02-17T23:24:03.594Z,53.19
2019-02-17T23:26:30.376Z,53.19
2019-02-17T23:28:57.085Z,53.29
2019-02-17T23:31:23.826Z,53.04
2019-02-17T23:33:50.629Z,53.03
2019-02-17T23:36:17.349Z,53.01
2019-02-17T23:38:44.083Z,53.28
2019-02-17T23:41:10.890Z,53.28
2019-02-17T23:43:37.638Z,52.98
2019-02-17T23:46:04.439Z,53.31
2019-02-17T23:48:31.190Z,53.20
2019-02-17T23:50:57.942Z,53.13
2019-02-17T23:53:24.705Z,52.92
2019-02-17T23:55:51.432Z,53.05
2019-02-17T23:58:18.207Z,53.11
